sensor_id;sensor_type;location;lat;lon;timestamp;pressure;altitude;pressure_sealevel;temperature;humidity
38716;BME280;24833;49.324;8.694;2023-11-21T00:00:35;99175.50;;;8.82;100.00
38716;BME280;24833;49.324;8.694;2023-11-21T00:03:02;99172.84;;;8.82;100.00
38716;BME280;24833;49.324;8.694;2023-11-21T00:05:31;99164.88;;;8.82;100.00
38716;BME280;24833;49.324;8.694;2023-11-21T00:07:58;99171.22;;;8.81;100.00
38716;BME280;24833;49.324;8.694;2023-11-21T00:10:25;99169.56;;;8.80;100.00
38716;BME280;24833;49.324;8.694;2023-11-21T00:12:52;99165.06;;;8.80;100.00
38716;BME280;24833;49.324;8.694;2023-11-21T00:15:21;99168.75;;;8.79;100.00
38716;BME280;24833;49.324;8.694;2023-11-21T00:17:48;99173.06;;;8.80;100.00
38716;BME280;24833;49.324;8.694;2023-11-21T00:20:16;99175.72;;;8.80;100.00
38716;BME280;24833;49.324;8.694;2023-11-21T00:22:43;99172.25;;;8.80;100.00
38716;BME280;24833;49.324;8.694;2023-11-21T00:25:12;99170.41;;;8.80;100.00
38716;BME280;24833;49.324;8.694;2023-11-21T00:27:42;99174.69;;;8.81;100.00
38716;BME280;24833;49.324;8.694;2023-11-21T00:30:09;99173.06;;;8.80;100.00
38716;BME280;24833;49.324;8.694;2023-11-21T00:32:37;99163.22;;;8.81;100.00
38716;BME280;24833;49.324;8.694;2023-11-21T00:35:05;99176.53;;;8.81;100.00
38716;BME280;24833;49.324;8.694;2023-11-21T00:37:33;99168.56;;;8.81;100.00
38716;BME280;24833;49.324;8.694;2023-11-21T00:40:00;99168.56;;;8.81;100.00
38716;BME280;24833;49.324;8.694;2023-11-21T00:42:33;99166.72;;;8.81;100.00
38716;BME280;24833;49.324;8.694;2023-11-21T00:45:01;99163.22;;;8.81;100.00
38716;BME280;24833;49.324;8.694;2023-11-21T00:47:28;99164.88;;;8.82;100.00
38716;BME280;24833;49.324;8.694;2023-11-21T00:49:55;99163.03;;;8.82;100.00
38716;BME280;24833;49.324;8.694;2023-11-21T00:52:22;99167.53;;;8.82;100.00
38716;BME280;24833;49.324;8.694;2023-11-21T00:54:49;99160.34;;;8.82;100.00
38716;BME280;24833;49.324;8.694;2023-11-21T00:57:16;99157.69;;;8.82;100.00
38716;BME280;24833;49.324;8.694;2023-11-21T00:59:43;99158.53;;;8.83;100.00
38716;BME280;24833;49.324;8.694;2023-11-21T01:02:10;99161.81;;;8.85;100.00
38716;BME280;24833;49.324;8.694;2023-11-21T01:04:37;99161.00;;;8.84;100.00
38716;BME280;24833;49.324;8.694;2023-11-21T01:07:05;99162.63;;;8.85;100.00
38716;BME280;24833;49.324;8.694;2023-11-21T01:09:32;99166.13;;;8.86;100.00
38716;BME280;24833;49.324;8.694;2023-11-21T01:11:59;99161.63;;;8.86;100.00
38716;BME280;24833;49.324;8.694;2023-11-21T01:14:27;99168.56;;;8.87;100.00
38716;BME280;24833;49.324;8.694;2023-11-21T01:16:54;99165.09;;;8.87;100.00
38716;BME280;24833;49.324;8.694;2023-11-21T01:19:21;99172.06;;;8.88;100.00
38716;BME280;24833;49.324;8.694;2023-11-21T01:21:48;99164.88;;;8.88;100.00
38716;BME280;24833;49.324;8.694;2023-11-21T01:24:15;99166.53;;;8.89;100.00
38716;BME280;24833;49.324;8.694;2023-11-21T01:26:43;99168.38;;;8.89;100.00
38716;BME280;24833;49.324;8.694;2023-11-21T01:29:10;99169.19;;;8.89;100.00
38716;BME280;24833;49.324;8.694;2023-11-21T01:31:37;99169.19;;;8.89;100.00
38716;BME280;24833;49.324;8.694;2023-11-21T01:34:05;99170.84;;;8.90;100.00
38716;BME280;24833;49.324;8.694;2023-11-21T01:36:33;99176.19;;;8.90;100.00
38716;BME280;24833;49.324;8.694;2023-11-21T01:39:00;99172.50;;;8.91;100.00
38716;BME280;24833;49.324;8.694;2023-11-21T01:41:27;99180.47;;;8.91;100.00
38716;BME280;24833;49.324;8.694;2023-11-21T01:43:56;99176.78;;;8.92;100.00
38716;BME280;24833;49.324;8.694;2023-11-21T01:46:23;99184.78;;;8.92;100.00
38716;BME280;24833;49.324;8.694;2023-11-21T01:48:51;99180.28;;;8.93;100.00
38716;BME280;24833;49.324;8.694;2023-11-21T01:51:19;99176.78;;;8.92;100.00
38716;BME280;24833;49.324;8.694;2023-11-21T01:53:47;99176.59;;;8.94;100.00
38716;BME280;24833;49.324;8.694;2023-11-21T01:56:15;99172.09;;;8.94;100.00
38716;BME280;24833;49.324;8.694;2023-11-21T01:58:43;99172.09;;;8.94;100.00
38716;BME280;24833;49.324;8.694;2023-11-21T02:01:11;99169.41;;;8.94;100.00
38716;BME280;24833;49.324;8.694;2023-11-21T02:03:38;99166.75;;;8.94;100.00
38716;BME280;24833;49.324;8.694;2023-11-21T02:06:08;99168.38;;;8.95;100.00
38716;BME280;24833;49.324;8.694;2023-11-21T02:08:35;99168.38;;;8.95;100.00
38716;BME280;24833;49.324;8.694;2023-11-21T02:11:05;99169.22;;;8.96;100.00
38716;BME280;24833;49.324;8.694;2023-11-21T02:13:33;99170.06;;;8.96;100.00
38716;BME280;24833;49.324;8.694;2023-11-21T02:16:00;99170.06;;;8.96;100.00
38716;BME280;24833;49.324;8.694;2023-11-21T02:18:27;99164.72;;;8.96;100.00
38716;BME280;24833;49.324;8.694;2023-11-21T02:20:56;99164.72;;;8.96;100.00
38716;BME280;24833;49.324;8.694;2023-11-21T02:23:23;99170.06;;;8.96;100.00
38716;BME280;24833;49.324;8.694;2023-11-21T02:25:55;99177.03;;;8.97;100.00
38716;BME280;24833;49.324;8.694;2023-11-21T02:28:23;99167.19;;;8.98;100.00
38716;BME280;24833;49.324;8.694;2023-11-21T02:30:52;99165.56;;;8.97;100.00
38716;BME280;24833;49.324;8.694;2023-11-21T02:33:23;99171.69;;;8.97;100.00
38716;BME280;24833;49.324;8.694;2023-11-21T02:35:50;99171.69;;;8.97;100.00
38716;BME280;24833;49.324;8.694;2023-11-21T02:38:21;99166.38;;;8.97;100.00
38716;BME280;24833;49.324;8.694;2023-11-21T02:40:48;99169.03;;;8.97;100.00
38716;BME280;24833;49.324;8.694;2023-11-21T02:43:16;99169.03;;;8.97;100.00
38716;BME280;24833;49.324;8.694;2023-11-21T02:45:43;99161.03;;;8.97;100.00
38716;BME280;24833;49.324;8.694;2023-11-21T02:48:11;99158.56;;;8.96;100.00
38716;BME280;24833;49.324;8.694;2023-11-21T02:50:38;99164.72;;;8.96;100.00
38716;BME280;24833;49.324;8.694;2023-11-21T02:53:06;99166.53;;;8.96;100.00
38716;BME280;24833;49.324;8.694;2023-11-21T02:55:33;99161.22;;;8.96;100.00
38716;BME280;24833;49.324;8.694;2023-11-21T02:58:02;99164.72;;;8.96;100.00
38716;BME280;24833;49.324;8.694;2023-11-21T03:00:30;99160.41;;;8.95;100.00
38716;BME280;24833;49.324;8.694;2023-11-21T03:02:57;99160.59;;;8.94;100.00
38716;BME280;24833;49.324;8.694;2023-11-21T03:05:25;99161.44;;;8.94;100.00
38716;BME280;24833;49.324;8.694;2023-11-21T03:07:52;99160.59;;;8.94;100.00
38716;BME280;24833;49.324;8.694;2023-11-21T03:10:20;99160.59;;;8.94;100.00
38716;BME280;24833;49.324;8.694;2023-11-21T03:12:47;99159.59;;;8.95;100.00
38716;BME280;24833;49.324;8.694;2023-11-21T03:15:14;99154.47;;;8.93;100.00
38716;BME280;24833;49.324;8.694;2023-11-21T03:17:42;99150.78;;;8.94;100.00
38716;BME280;24833;49.324;8.694;2023-11-21T03:20:10;99154.47;;;8.93;100.00
38716;BME280;24833;49.324;8.694;2023-11-21T03:22:38;99162.44;;;8.93;100.00
38716;BME280;24833;49.324;8.694;2023-11-21T03:25:07;99154.47;;;8.93;100.00
38716;BME280;24833;49.324;8.694;2023-11-21T03:27:37;99158.97;;;8.93;100.00
38716;BME280;24833;49.324;8.694;2023-11-21T03:30:09;99160.81;;;8.92;100.00
38716;BME280;24833;49.324;8.694;2023-11-21T03:32:36;99168.81;;;8.92;100.00
38716;BME280;24833;49.324;8.694;2023-11-21T03:35:04;99166.97;;;8.93;100.00
38716;BME280;24833;49.324;8.694;2023-11-21T03:37:33;99158.97;;;8.93;100.00
38716;BME280;24833;49.324;8.694;2023-11-21T03:40:00;99169.63;;;8.93;100.00
38716;BME280;24833;49.324;8.694;2023-11-21T03:42:28;99167.78;;;8.93;100.00
38716;BME280;24833;49.324;8.694;2023-11-21T03:44:55;99158.97;;;8.93;100.00
38716;BME280;24833;49.324;8.694;2023-11-21T03:47:22;99155.50;;;8.92;100.00
38716;BME280;24833;49.324;8.694;2023-11-21T03:49:49;99158.97;;;8.93;100.00
38716;BME280;24833;49.324;8.694;2023-11-21T03:52:16;99163.47;;;8.92;100.00
38716;BME280;24833;49.324;8.694;2023-11-21T03:54:44;99157.34;;;8.92;100.00
38716;BME280;24833;49.324;8.694;2023-11-21T03:57:12;99163.47;;;8.92;100.00
38716;BME280;24833;49.324;8.694;2023-11-21T03:59:43;99169.84;;;8.91;100.00
38716;BME280;24833;49.324;8.694;2023-11-21T04:02:10;99173.31;;;8.92;100.00
38716;BME280;24833;49.324;8.694;2023-11-21T04:04:37;99172.50;;;8.91;100.00
38716;BME280;24833;49.324;8.694;2023-11-21T04:07:05;99183.16;;;8.91;100.00
38716;BME280;24833;49.324;8.694;2023-11-21T04:09:32;99177.81;;;8.91;100.00
38716;BME280;24833;49.324;8.694;2023-11-21T04:11:59;99181.50;;;8.90;100.00
38716;BME280;24833;49.324;8.694;2023-11-21T04:14:26;99185.81;;;8.91;100.00
38716;BME280;24833;49.324;8.694;2023-11-21T04:16:53;99187.66;;;8.91;100.00
38716;BME280;24833;49.324;8.694;2023-11-21T04:19:20;99186.84;;;8.90;100.00
38716;BME280;24833;49.324;8.694;2023-11-21T04:21:48;99188.47;;;8.91;100.00
38716;BME280;24833;49.324;8.694;2023-11-21T04:24:16;99191.34;;;8.90;100.00
38716;BME280;24833;49.324;8.694;2023-11-21T04:26:44;99197.47;;;8.90;100.00
38716;BME280;24833;49.324;8.694;2023-11-21T04:29:11;99200.97;;;8.91;100.00
38716;BME280;24833;49.324;8.694;2023-11-21T04:31:38;99194.00;;;8.90;100.00
38716;BME280;24833;49.324;8.694;2023-11-21T04:34:05;99193.16;;;8.89;100.00
38716;BME280;24833;49.324;8.694;2023-11-21T04:36:32;99191.34;;;8.90;100.00
38716;BME280;24833;49.324;8.694;2023-11-21T04:38:59;99195.81;;;8.89;100.00
38716;BME280;24833;49.324;8.694;2023-11-21T04:41:26;99206.47;;;8.89;100.00
38716;BME280;24833;49.324;8.694;2023-11-21T04:43:53;99202.00;;;8.90;100.00
38716;BME280;24833;49.324;8.694;2023-11-21T04:46:20;99202.00;;;8.90;100.00
38716;BME280;24833;49.324;8.694;2023-11-21T04:48:48;99201.13;;;8.89;100.00
38716;BME280;24833;49.324;8.694;2023-11-21T04:51:16;99207.50;;;8.88;100.00
38716;BME280;24833;49.324;8.694;2023-11-21T04:53:43;99202.16;;;8.88;100.00
38716;BME280;24833;49.324;8.694;2023-11-21T04:56:10;99210.16;;;8.88;100.00
38716;BME280;24833;49.324;8.694;2023-11-21T04:58:38;99210.16;;;8.88;100.00
38716;BME280;24833;49.324;8.694;2023-11-21T05:01:07;99216.28;;;8.89;100.00
38716;BME280;24833;49.324;8.694;2023-11-21T05:03:35;99218.97;;;8.89;100.00
38716;BME280;24833;49.324;8.694;2023-11-21T05:06:02;99215.47;;;8.88;100.00
38716;BME280;24833;49.324;8.694;2023-11-21T05:08:32;99215.47;;;8.88;100.00
38716;BME280;24833;49.324;8.694;2023-11-21T05:10:59;99215.47;;;8.88;100.00
38716;BME280;24833;49.324;8.694;2023-11-21T05:13:26;99219.16;;;8.87;100.00
38716;BME280;24833;49.324;8.694;2023-11-21T05:15:55;99226.13;;;8.88;100.00
38716;BME280;24833;49.324;8.694;2023-11-21T05:18:25;99226.13;;;8.88;100.00
38716;BME280;24833;49.324;8.694;2023-11-21T05:20:56;99217.53;;;8.86;100.00
38716;BME280;24833;49.324;8.694;2023-11-21T05:23:24;99227.97;;;8.88;100.00
38716;BME280;24833;49.324;8.694;2023-11-21T05:25:51;99229.00;;;8.87;100.00
38716;BME280;24833;49.324;8.694;2023-11-21T05:28:18;99230.84;;;8.86;100.00
38716;BME280;24833;49.324;8.694;2023-11-21T05:30:45;99236.16;;;8.86;100.00
38716;BME280;24833;49.324;8.694;2023-11-21T05:33:13;99244.16;;;8.86;100.00
38716;BME280;24833;49.324;8.694;2023-11-21T05:35:40;99239.84;;;8.85;100.00
38716;BME280;24833;49.324;8.694;2023-11-21T05:38:07;99247.84;;;8.85;100.00
38716;BME280;24833;49.324;8.694;2023-11-21T05:40:34;99254.78;;;8.86;100.00
38716;BME280;24833;49.324;8.694;2023-11-21T05:43:01;99256.84;;;8.84;100.00
38716;BME280;24833;49.324;8.694;2023-11-21T05:45:28;99258.47;;;8.85;100.00
38716;BME280;24833;49.324;8.694;2023-11-21T05:47:58;99257.66;;;8.85;100.00
38716;BME280;24833;49.324;8.694;2023-11-21T05:50:25;99263.81;;;8.85;100.00
38716;BME280;24833;49.324;8.694;2023-11-21T05:52:52;99263.81;;;8.85;100.00
38716;BME280;24833;49.324;8.694;2023-11-21T05:55:22;99266.66;;;8.84;100.00
38716;BME280;24833;49.324;8.694;2023-11-21T05:57:52;99265.03;;;8.83;100.00
38716;BME280;24833;49.324;8.694;2023-11-21T06:00:20;99277.31;;;8.84;100.00
38716;BME280;24833;49.324;8.694;2023-11-21T06:02:53;99271.19;;;8.83;100.00
38716;BME280;24833;49.324;8.694;2023-11-21T06:05:25;99275.69;;;8.83;100.00
38716;BME280;24833;49.324;8.694;2023-11-21T06:07:54;99276.50;;;8.83;100.00
38716;BME280;24833;49.324;8.694;2023-11-21T06:10:23;99273.84;;;8.83;100.00
38716;BME280;24833;49.324;8.694;2023-11-21T06:12:53;99284.50;;;8.83;100.00
38716;BME280;24833;49.324;8.694;2023-11-21T06:15:21;99286.34;;;8.83;100.00
38716;BME280;24833;49.324;8.694;2023-11-21T06:17:51;99290.81;;;8.82;100.00
38716;BME280;24833;49.324;8.694;2023-11-21T06:20:22;99288.13;;;8.82;100.00
38716;BME280;24833;49.324;8.694;2023-11-21T06:22:50;99289.97;;;8.82;100.00
38716;BME280;24833;49.324;8.694;2023-11-21T06:25:18;99290.81;;;8.82;100.00
38716;BME280;24833;49.324;8.694;2023-11-21T06:27:48;99294.50;;;8.81;100.00
38716;BME280;24833;49.324;8.694;2023-11-21T06:30:16;99299.81;;;8.81;100.00
38716;BME280;24833;49.324;8.694;2023-11-21T06:32:43;99304.13;;;8.82;100.00
38716;BME280;24833;49.324;8.694;2023-11-21T06:35:13;99306.78;;;8.82;100.00
38716;BME280;24833;49.324;8.694;2023-11-21T06:37:42;99307.81;;;8.81;100.00
38716;BME280;24833;49.324;8.694;2023-11-21T06:40:15;99310.47;;;8.81;100.00
38716;BME280;24833;49.324;8.694;2023-11-21T06:42:42;99312.09;;;8.82;100.00
38716;BME280;24833;49.324;8.694;2023-11-21T06:45:11;99325.41;;;8.82;100.00
38716;BME280;24833;49.324;8.694;2023-11-21T06:47:38;99319.25;;;8.82;100.00
38716;BME280;24833;49.324;8.694;2023-11-21T06:50:07;99322.75;;;8.82;100.00
38716;BME280;24833;49.324;8.694;2023-11-21T06:52:37;99321.94;;;8.82;100.00
38716;BME280;24833;49.324;8.694;2023-11-21T06:55:05;99317.44;;;8.82;100.00
38716;BME280;24833;49.324;8.694;2023-11-21T06:57:35;99328.06;;;8.82;100.00
38716;BME280;24833;49.324;8.694;2023-11-21T07:00:03;99328.06;;;8.82;100.00
38716;BME280;24833;49.324;8.694;2023-11-21T07:02:31;99334.25;;;8.83;100.00
38716;BME280;24833;49.324;8.694;2023-11-21T07:04:58;99335.88;;;8.84;100.00
38716;BME280;24833;49.324;8.694;2023-11-21T07:07:26;99336.06;;;8.82;100.00
38716;BME280;24833;49.324;8.694;2023-11-21T07:09:54;99335.88;;;8.84;100.00
38716;BME280;24833;49.324;8.694;2023-11-21T07:12:21;99339.38;;;8.84;100.00
38716;BME280;24833;49.324;8.694;2023-11-21T07:14:50;99342.25;;;8.83;100.00
38716;BME280;24833;49.324;8.694;2023-11-21T07:17:17;99344.69;;;8.84;100.00
38716;BME280;24833;49.324;8.694;2023-11-21T07:19:44;99346.53;;;8.84;100.00
38716;BME280;24833;49.324;8.694;2023-11-21T07:22:12;99353.50;;;8.85;100.00
38716;BME280;24833;49.324;8.694;2023-11-21T07:24:40;99357.81;;;8.86;100.00
38716;BME280;24833;49.324;8.694;2023-11-21T07:27:07;99361.28;;;8.86;100.00
38716;BME280;24833;49.324;8.694;2023-11-21T07:29:35;99373.56;;;8.87;100.00
38716;BME280;24833;49.324;8.694;2023-11-21T07:32:02;99373.56;;;8.87;100.00
38716;BME280;24833;49.324;8.694;2023-11-21T07:34:29;99377.06;;;8.88;100.00
38716;BME280;24833;49.324;8.694;2023-11-21T07:36:56;99376.03;;;8.89;100.00
38716;BME280;24833;49.324;8.694;2023-11-21T07:39:23;99378.69;;;8.89;100.00
38716;BME280;24833;49.324;8.694;2023-11-21T07:41:50;99385.50;;;8.91;100.00
38716;BME280;24833;49.324;8.694;2023-11-21T07:44:17;99377.50;;;8.91;100.00
38716;BME280;24833;49.324;8.694;2023-11-21T07:46:45;99385.31;;;8.93;100.00
38716;BME280;24833;49.324;8.694;2023-11-21T07:49:12;99394.09;;;8.93;100.00
38716;BME280;24833;49.324;8.694;2023-11-21T07:51:44;99389.59;;;8.94;100.00
38716;BME280;24833;49.324;8.694;2023-11-21T07:54:11;99392.06;;;8.95;100.00
38716;BME280;24833;49.324;8.694;2023-11-21T07:56:38;99393.72;;;8.96;100.00
38716;BME280;24833;49.324;8.694;2023-11-21T07:59:05;99397.00;;;8.98;100.00
38716;BME280;24833;49.324;8.694;2023-11-21T08:01:32;99397.00;;;8.98;100.00
38716;BME280;24833;49.324;8.694;2023-11-21T08:04:00;99396.00;;;8.99;100.00
38716;BME280;24833;49.324;8.694;2023-11-21T08:06:30;99394.97;;;9.00;100.00
38716;BME280;24833;49.324;8.694;2023-11-21T08:08:58;99398.25;;;9.02;100.00
38716;BME280;24833;49.324;8.694;2023-11-21T08:11:25;99399.94;;;9.04;100.00
38716;BME280;24833;49.324;8.694;2023-11-21T08:13:58;99390.91;;;9.05;100.00
38716;BME280;24833;49.324;8.694;2023-11-21T08:16:26;99396.84;;;9.07;100.00
38716;BME280;24833;49.324;8.694;2023-11-21T08:18:54;99405.66;;;9.07;100.00
38716;BME280;24833;49.324;8.694;2023-11-21T08:21:22;99392.16;;;9.09;100.00
38716;BME280;24833;49.324;8.694;2023-11-21T08:23:51;99405.28;;;9.10;100.00
38716;BME280;24833;49.324;8.694;2023-11-21T08:26:21;99410.41;;;9.12;100.00
38716;BME280;24833;49.324;8.694;2023-11-21T08:28:49;99409.41;;;9.13;100.00
38716;BME280;24833;49.324;8.694;2023-11-21T08:31:26;99408.19;;;9.15;100.00
38716;BME280;24833;49.324;8.694;2023-11-21T08:33:54;99416.97;;;9.16;100.00
38716;BME280;24833;49.324;8.694;2023-11-21T08:36:25;99419.47;;;9.17;100.00
38716;BME280;24833;49.324;8.694;2023-11-21T08:38:52;99428.91;;;9.20;100.00
38716;BME280;24833;49.324;8.694;2023-11-21T08:41:19;99439.38;;;9.21;100.00
38716;BME280;24833;49.324;8.694;2023-11-21T08:43:52;99431.19;;;9.23;100.00
38716;BME280;24833;49.324;8.694;2023-11-21T08:46:21;99433.66;;;9.24;100.00
38716;BME280;24833;49.324;8.694;2023-11-21T08:48:49;99442.28;;;9.26;100.00
38716;BME280;24833;49.324;8.694;2023-11-21T08:51:19;99450.06;;;9.28;100.00
38716;BME280;24833;49.324;8.694;2023-11-21T08:53:47;99448.88;;;9.31;100.00
38716;BME280;24833;49.324;8.694;2023-11-21T08:56:14;99446.00;;;9.32;100.00
38716;BME280;24833;49.324;8.694;2023-11-21T08:58:41;99440.25;;;9.35;100.00
38716;BME280;24833;49.324;8.694;2023-11-21T09:01:09;99443.56;;;9.37;100.00
38716;BME280;24833;49.324;8.694;2023-11-21T09:03:36;99439.88;;;9.38;100.00
38716;BME280;24833;49.324;8.694;2023-11-21T09:06:03;99449.31;;;9.41;100.00
38716;BME280;24833;49.324;8.694;2023-11-21T09:08:31;99457.94;;;9.43;100.00
38716;BME280;24833;49.324;8.694;2023-11-21T09:10:58;99451.41;;;9.45;100.00
38716;BME280;24833;49.324;8.694;2023-11-21T09:13:25;99446.91;;;9.46;100.00
38716;BME280;24833;49.324;8.694;2023-11-21T09:15:53;99452.03;;;9.47;100.00
38716;BME280;24833;49.324;8.694;2023-11-21T09:18:20;99458.81;;;9.50;100.00
38716;BME280;24833;49.324;8.694;2023-11-21T09:20:47;99460.47;;;9.51;100.00
38716;BME280;24833;49.324;8.694;2023-11-21T09:23:14;99461.09;;;9.53;100.00
38716;BME280;24833;49.324;8.694;2023-11-21T09:25:41;99468.88;;;9.54;100.00
38716;BME280;24833;49.324;8.694;2023-11-21T09:28:08;99469.53;;;9.57;100.00
38716;BME280;24833;49.324;8.694;2023-11-21T09:30:35;99475.47;;;9.59;100.00
38716;BME280;24833;49.324;8.694;2023-11-21T09:33:03;99473.44;;;9.61;100.00
38716;BME280;24833;49.324;8.694;2023-11-21T09:35:34;99477.72;;;9.62;100.00
38716;BME280;24833;49.324;8.694;2023-11-21T09:38:01;99481.06;;;9.64;100.00
38716;BME280;24833;49.324;8.694;2023-11-21T09:40:32;99489.66;;;9.66;100.00
38716;BME280;24833;49.324;8.694;2023-11-21T09:43:00;99480.63;;;9.67;100.00
38716;BME280;24833;49.324;8.694;2023-11-21T09:45:34;99488.44;;;9.68;100.00
38716;BME280;24833;49.324;8.694;2023-11-21T09:48:02;99495.22;;;9.71;100.00
38716;BME280;24833;49.324;8.694;2023-11-21T09:50:29;99495.84;;;9.73;100.00
38716;BME280;24833;49.324;8.694;2023-11-21T09:53:18;99500.97;;;9.74;100.00
38716;BME280;24833;49.324;8.694;2023-11-21T09:55:50;99503.44;;;9.76;100.00
38716;BME280;24833;49.324;8.694;2023-11-21T09:58:19;99506.75;;;9.78;100.00
38716;BME280;24833;49.324;8.694;2023-11-21T10:00:49;99501.44;;;9.78;100.00
38716;BME280;24833;49.324;8.694;2023-11-21T10:03:16;99509.22;;;9.79;100.00
38716;BME280;24833;49.324;8.694;2023-11-21T10:05:45;99512.72;;;9.80;100.00
38716;BME280;24833;49.324;8.694;2023-11-21T10:08:13;99509.00;;;9.81;100.00
38716;BME280;24833;49.324;8.694;2023-11-21T10:10:46;99513.31;;;9.82;100.00
38716;BME280;24833;49.324;8.694;2023-11-21T10:13:17;99508.81;;;9.82;100.00
38716;BME280;24833;49.324;8.694;2023-11-21T10:15:51;99509.66;;;9.83;100.00
38716;BME280;24833;49.324;8.694;2023-11-21T10:18:21;99524.63;;;9.84;100.00
38716;BME280;24833;49.324;8.694;2023-11-21T10:20:50;99515.63;;;9.85;100.00
38716;BME280;24833;49.324;8.694;2023-11-21T10:23:22;99513.56;;;9.87;100.00
38716;BME280;24833;49.324;8.694;2023-11-21T10:25:54;99517.88;;;9.88;100.00
38716;BME280;24833;49.324;8.694;2023-11-21T10:28:24;99516.84;;;9.89;100.00
38716;BME280;24833;49.324;8.694;2023-11-21T10:30:51;99515.84;;;9.90;100.00
38716;BME280;24833;49.324;8.694;2023-11-21T10:33:27;99516.84;;;9.89;100.00
38716;BME280;24833;49.324;8.694;2023-11-21T10:35:56;99517.69;;;9.90;100.00
38716;BME280;24833;49.324;8.694;2023-11-21T10:38:23;99521.19;;;9.90;100.00
38716;BME280;24833;49.324;8.694;2023-11-21T10:40:52;99518.69;;;9.89;100.00
38716;BME280;24833;49.324;8.694;2023-11-21T10:43:19;99521.34;;;9.89;100.00
38716;BME280;24833;49.324;8.694;2023-11-21T10:45:47;99520.53;;;9.88;100.00
38716;BME280;24833;49.324;8.694;2023-11-21T10:48:15;99518.06;;;9.87;100.00
38716;BME280;24833;49.324;8.694;2023-11-21T10:50:45;99528.94;;;9.85;100.00
38716;BME280;24833;49.324;8.694;2023-11-21T10:53:13;99530.78;;;9.85;100.00
38716;BME280;24833;49.324;8.694;2023-11-21T10:55:40;99535.31;;;9.84;100.00
38716;BME280;24833;49.324;8.694;2023-11-21T10:58:08;99532.00;;;9.82;100.00
38716;BME280;24833;49.324;8.694;2023-11-21T11:00:38;99541.03;;;9.81;100.00
38716;BME280;24833;49.324;8.694;2023-11-21T11:03:07;99542.25;;;9.78;100.00
38716;BME280;24833;49.324;8.694;2023-11-21T11:05:41;99543.06;;;9.79;100.00
38716;BME280;24833;49.324;8.694;2023-11-21T11:08:13;99549.44;;;9.78;100.00
38716;BME280;24833;49.324;8.694;2023-11-21T11:10:46;99548.78;;;9.76;100.00
38716;BME280;24833;49.324;8.694;2023-11-21T11:13:16;99544.28;;;9.76;100.00
38716;BME280;24833;49.324;8.694;2023-11-21T11:15:47;99549.78;;;9.75;100.00
38716;BME280;24833;49.324;8.694;2023-11-21T11:18:15;99550.63;;;9.75;100.00
38716;BME280;24833;49.324;8.694;2023-11-21T11:20:44;99555.13;;;9.75;100.00
38716;BME280;24833;49.324;8.694;2023-11-21T11:27:07;99549.78;;;9.75;100.00
38716;BME280;24833;49.324;8.694;2023-11-21T11:29:53;99552.47;;;9.75;100.00
38716;BME280;24833;49.324;8.694;2023-11-21T11:32:58;99552.47;;;9.75;100.00
38716;BME280;24833;49.324;8.694;2023-11-21T11:35:56;99560.47;;;9.75;100.00
38716;BME280;24833;49.324;8.694;2023-11-21T11:38:24;99552.47;;;9.75;100.00
38716;BME280;24833;49.324;8.694;2023-11-21T11:40:53;99557.63;;;9.76;100.00
38716;BME280;24833;49.324;8.694;2023-11-21T11:43:26;99554.09;;;9.76;100.00
38716;BME280;24833;49.324;8.694;2023-11-21T11:45:58;99555.78;;;9.77;100.00
38716;BME280;24833;49.324;8.694;2023-11-21T11:48:26;99557.41;;;9.78;100.00
38716;BME280;24833;49.324;8.694;2023-11-21T11:51:12;99556.59;;;9.77;100.00
38716;BME280;24833;49.324;8.694;2023-11-21T11:53:48;99553.72;;;9.79;100.00
38716;BME280;24833;49.324;8.694;2023-11-21T11:58:57;99559.06;;;9.79;100.00
38716;BME280;24833;49.324;8.694;2023-11-21T12:01:27;99561.72;;;9.79;100.00
38716;BME280;24833;49.324;8.694;2023-11-21T12:06:53;99573.00;;;9.81;100.00
38716;BME280;24833;49.324;8.694;2023-11-21T12:09:23;99565.03;;;9.81;100.00
38716;BME280;24833;49.324;8.694;2023-11-21T12:11:51;99572.00;;;9.82;100.00
38716;BME280;24833;49.324;8.694;2023-11-21T12:14:18;99572.63;;;9.84;100.00
38716;BME280;24833;49.324;8.694;2023-11-21T12:16:45;99575.31;;;9.84;100.00
38716;BME280;24833;49.324;8.694;2023-11-21T12:19:12;99572.44;;;9.86;100.00
38716;BME280;24833;49.324;8.694;2023-11-21T12:21:40;99575.94;;;9.86;100.00
38716;BME280;24833;49.324;8.694;2023-11-21T12:24:15;99577.56;;;9.87;100.00
38716;BME280;24833;49.324;8.694;2023-11-21T12:26:43;99579.22;;;9.88;100.00
38716;BME280;24833;49.324;8.694;2023-11-21T12:29:11;99576.53;;;9.88;100.00
38716;BME280;24833;49.324;8.694;2023-11-21T12:31:38;99575.53;;;9.89;100.00
38716;BME280;24833;49.324;8.694;2023-11-21T12:34:06;99582.53;;;9.90;100.00
38716;BME280;24833;49.324;8.694;2023-11-21T12:36:34;99578.84;;;9.91;100.00
38716;BME280;24833;49.324;8.694;2023-11-21T12:39:02;99590.13;;;9.93;100.00
38716;BME280;24833;49.324;8.694;2023-11-21T12:41:30;99585.41;;;9.95;100.00
38716;BME280;24833;49.324;8.694;2023-11-21T12:43:58;99586.22;;;9.96;100.00
38716;BME280;24833;49.324;8.694;2023-11-21T12:46:25;99590.38;;;9.98;100.00
38716;BME280;24833;49.324;8.694;2023-11-21T12:49:01;99600.63;;;10.01;100.00
38716;BME280;24833;49.324;8.694;2023-11-21T12:51:28;99605.59;;;10.04;100.00
38716;BME280;24833;49.324;8.694;2023-11-21T12:53:56;99604.38;;;10.07;100.00
38716;BME280;24833;49.324;8.694;2023-11-21T12:56:23;99606.44;;;10.12;100.00
38716;BME280;24833;49.324;8.694;2023-11-21T12:58:53;99605.03;;;10.16;100.00
38716;BME280;24833;49.324;8.694;2023-11-21T13:01:21;99609.56;;;10.22;100.00
38716;BME280;24833;49.324;8.694;2023-11-21T13:03:53;99614.16;;;10.28;100.00
38716;BME280;24833;49.324;8.694;2023-11-21T13:06:21;99608.84;;;10.34;100.00
38716;BME280;24833;49.324;8.694;2023-11-21T13:08:51;99607.84;;;10.42;100.00
38716;BME280;24833;49.324;8.694;2023-11-21T13:11:19;99609.72;;;10.48;100.00
38716;BME280;24833;49.324;8.694;2023-11-21T13:13:46;99603.22;;;10.57;100.00
38716;BME280;24833;49.324;8.694;2023-11-21T13:16:13;99606.72;;;10.64;100.00